createdAt,value
2019-04-16T00:00:37.453Z,16.67
2019-04-16T00:03:05.936Z,15.98
2019-04-16T00:05:41.801Z,15.43
2019-04-16T00:08:27.289Z,16.00
2019-04-16T00:10:46.108Z,16.37
2019-04-16T00:13:22.087Z,15.58
2019-04-16T00:15:50.504Z,16.10
2019-04-16T00:18:19.543Z,15.85
2019-04-16T00:20:49.976Z,17.35
2019-04-16T00:23:38.286Z,15.28
2019-04-16T00:26:08.429Z,14.73
2019-04-16T00:28:36.866Z,14.30
2019-04-16T00:31:05.851Z,16.57
2019-04-16T00:33:34.525Z,15.72
2019-04-16T00:36:02.958Z,16.70
2019-04-16T00:38:40.631Z,16.57
2019-04-16T00:41:02.276Z,14.00
2019-04-16T00:43:30.859Z,15.23
2019-04-16T00:45:59.275Z,15.60
2019-04-16T00:48:27.766Z,15.53
2019-04-16T00:50:56.182Z,14.98
2019-04-16T00:53:24.597Z,15.90
2019-04-16T00:55:53.009Z,13.58
2019-04-16T00:58:21.417Z,14.33
2019-04-16T01:00:49.832Z,15.68
2019-04-16T01:03:18.374Z,16.57
2019-04-16T01:05:46.784Z,14.87
2019-04-16T01:08:15.202Z,15.75
2019-04-16T01:10:43.618Z,13.98
2019-04-16T01:13:12.037Z,15.43
2019-04-16T01:15:40.500Z,14.75
2019-04-16T01:18:09.067Z,15.93
2019-04-16T01:20:37.578Z,15.43
2019-04-16T01:23:06.019Z,14.58
2019-04-16T01:25:34.573Z,15.93
2019-04-16T01:28:04.625Z,14.80
2019-04-16T01:30:36.568Z,14.23
2019-04-16T01:33:06.477Z,14.93
2019-04-16T01:35:39.517Z,14.55
2019-04-16T01:38:18.566Z,11.12
2019-04-16T01:40:50.117Z,14.83
2019-04-16T01:43:18.753Z,16.25
2019-04-16T01:45:47.182Z,15.32
2019-04-16T01:48:15.618Z,16.27
2019-04-16T01:50:44.459Z,16.60
2019-04-16T01:53:12.961Z,17.30
2019-04-16T01:55:42.577Z,16.05
2019-04-16T01:58:11.197Z,15.80
2019-04-16T02:00:40.036Z,15.68
2019-04-16T02:03:08.602Z,16.52
2019-04-16T02:05:37.012Z,16.32
2019-04-16T02:08:05.553Z,13.85
2019-04-16T02:10:35.485Z,14.63
2019-04-16T02:13:04.730Z,15.90
2019-04-16T02:15:33.165Z,15.60
2019-04-16T02:18:01.642Z,17.35
2019-04-16T02:20:30.317Z,14.75
2019-04-16T02:22:58.734Z,17.57
2019-04-16T02:25:27.146Z,17.05
2019-04-16T02:27:57.005Z,15.88
2019-04-16T02:30:25.816Z,16.90
2019-04-16T02:32:54.436Z,17.12
2019-04-16T02:35:22.925Z,16.15
2019-04-16T02:37:51.403Z,16.87
2019-04-16T02:40:19.810Z,16.27
2019-04-16T02:42:48.228Z,16.02
2019-04-16T02:45:23.050Z,17.90
2019-04-16T02:47:46.929Z,16.97
2019-04-16T02:50:17.042Z,17.90
2019-04-16T02:52:51.054Z,16.07
2019-04-16T02:55:33.511Z,17.37
2019-04-16T02:58:06.547Z,17.45
2019-04-16T03:00:55.109Z,17.60
2019-04-16T03:03:28.094Z,16.27
2019-04-16T03:06:00.666Z,17.15
2019-04-16T03:08:27.580Z,18.25
2019-04-16T03:10:55.985Z,15.88
2019-04-16T03:13:24.493Z,16.55
2019-04-16T03:15:54.594Z,18.57
2019-04-16T03:18:33.932Z,18.02
2019-04-16T03:21:02.501Z,18.90
2019-04-16T03:23:31.137Z,17.90
2019-04-16T03:25:59.592Z,17.17
2019-04-16T03:28:28.094Z,15.95
2019-04-16T03:30:56.768Z,18.70
2019-04-16T03:33:25.178Z,18.67
2019-04-16T03:35:57.586Z,17.23
2019-04-16T03:38:23.732Z,17.98
2019-04-16T03:40:55.878Z,17.80
2019-04-16T03:43:22.368Z,17.67
2019-04-16T03:45:50.840Z,18.52
2019-04-16T03:48:20.625Z,19.07
2019-04-16T03:50:49.428Z,18.87
2019-04-16T03:53:18.389Z,18.23
2019-04-16T03:55:46.940Z,17.27
2019-04-16T03:58:15.359Z,19.77
2019-04-16T04:00:44.928Z,17.73
2019-04-16T04:03:13.468Z,17.15
2019-04-16T04:05:43.533Z,17.87
2019-04-16T04:08:16.327Z,19.15
2019-04-16T04:10:42.168Z,18.48
2019-04-16T04:13:10.659Z,18.70
2019-04-16T04:15:39.061Z,19.20
2019-04-16T04:18:07.841Z,17.15
2019-04-16T04:20:37.628Z,20.43
2019-04-16T04:23:06.461Z,19.17
2019-04-16T04:25:36.357Z,18.32
2019-04-16T04:28:05.184Z,18.48
2019-04-16T04:30:33.580Z,17.35
2019-04-16T04:33:07.706Z,18.90
2019-04-16T04:35:32.522Z,20.02
2019-04-16T04:38:03.860Z,17.62
2019-04-16T04:40:43.794Z,20.32
2019-04-16T04:43:01.728Z,19.07
2019-04-16T04:45:30.229Z,19.57
2019-04-16T04:47:58.640Z,17.98
2019-04-16T04:50:27.056Z,19.67
2019-04-16T04:52:55.482Z,21.00
2019-04-16T04:55:26.897Z,20.60
2019-04-16T04:57:54.042Z,20.68
2019-04-16T05:00:22.461Z,20.50
2019-04-16T05:02:50.872Z,22.05
2019-04-16T05:05:24.444Z,20.12
2019-04-16T05:07:51.120Z,21.87
2019-04-16T05:10:19.610Z,20.62
2019-04-16T05:12:50.501Z,21.48
2019-04-16T05:15:18.196Z,21.35
2019-04-16T05:17:46.629Z,20.77
2019-04-16T05:20:16.274Z,23.83
2019-04-16T05:22:44.960Z,22.82
2019-04-16T05:25:13.381Z,25.80
2019-04-16T05:27:41.792Z,23.45
2019-04-16T05:30:10.545Z,24.05
2019-04-16T05:32:38.994Z,23.57
2019-04-16T05:35:10.207Z,22.93
2019-04-16T05:37:37.534Z,25.25
2019-04-16T05:40:07.286Z,25.48
2019-04-16T05:42:35.695Z,21.20
2019-04-16T05:45:07.122Z,22.58
2019-04-16T05:47:35.556Z,20.57
2019-04-16T05:50:04.950Z,21.17
2019-04-16T05:52:35.905Z,20.30
2019-04-16T05:55:16.909Z,19.80
2019-04-16T05:57:43.610Z,22.20
2019-04-16T06:00:17.097Z,23.47
2019-04-16T06:02:49.730Z,16.10
2019-04-16T06:05:15.638Z,20.12
2019-04-16T06:07:44.072Z,21.62
2019-04-16T06:10:16.607Z,21.20
2019-04-16T06:12:53.781Z,21.65
2019-04-16T06:15:26.825Z,22.22
2019-04-16T06:18:11.983Z,20.80
2019-04-16T06:20:53.074Z,20.97
2019-04-16T06:23:25.708Z,20.70
2019-04-16T06:26:04.926Z,22.42
2019-04-16T06:28:34.986Z,21.33
2019-04-16T06:31:10.174Z,22.87
2019-04-16T06:33:39.888Z,22.42
2019-04-16T06:36:26.248Z,21.17
2019-04-16T06:39:02.271Z,19.57
2019-04-16T06:41:41.614Z,20.62
2019-04-16T06:44:04.325Z,21.65
2019-04-16T06:46:39.949Z,20.62
2019-04-16T06:49:17.640Z,20.40
2019-04-16T06:52:03.505Z,20.65
2019-04-16T06:54:45.517Z,21.55
2019-04-16T06:57:31.322Z,20.43
2019-04-16T07:00:17.815Z,21.15
2019-04-16T07:03:02.209Z,21.17
2019-04-16T07:05:31.936Z,20.50
2019-04-16T07:08:03.329Z,20.50
2019-04-16T07:10:45.619Z,21.70
2019-04-16T07:13:14.037Z,20.25
2019-04-16T07:15:42.701Z,18.65
2019-04-16T07:18:11.135Z,21.17
2019-04-16T07:20:42.313Z,21.60
2019-04-16T07:23:09.688Z,21.68
2019-04-16T07:25:41.728Z,19.37
2019-04-16T07:28:12.915Z,20.68
2019-04-16T07:30:45.877Z,19.35
2019-04-16T07:33:19.205Z,21.02
2019-04-16T07:36:01.300Z,21.60
2019-04-16T07:38:31.349Z,19.48
2019-04-16T07:41:19.512Z,19.35
2019-04-16T07:44:10.726Z,20.82
2019-04-16T07:46:44.144Z,17.95
2019-04-16T07:49:33.824Z,19.85
2019-04-16T07:52:19.419Z,19.55
2019-04-16T07:54:55.082Z,19.20
2019-04-16T07:57:23.527Z,18.73
2019-04-16T07:59:51.981Z,19.17
2019-04-16T08:02:21.459Z,19.90
2019-04-16T08:04:51.206Z,20.57
2019-04-16T08:07:20.645Z,20.92
2019-04-16T08:09:49.720Z,18.30
2019-04-16T08:12:29.785Z,18.45
2019-04-16T08:14:48.349Z,19.48
2019-04-16T08:17:16.771Z,19.15
2019-04-16T08:19:49.183Z,18.95
2019-04-16T08:22:16.508Z,19.77
2019-04-16T08:24:46.734Z,19.30
2019-04-16T08:27:19.093Z,19.48
2019-04-16T08:29:45.289Z,20.68
2019-04-16T08:32:16.069Z,19.40
2019-04-16T08:34:43.910Z,19.50
2019-04-16T08:37:12.388Z,20.62
2019-04-16T08:39:40.833Z,19.23
2019-04-16T08:42:09.259Z,18.75
2019-04-16T08:44:37.673Z,16.65
2019-04-16T08:47:11.521Z,17.55
2019-04-16T08:49:36.240Z,16.75
2019-04-16T08:52:09.914Z,16.70
2019-04-16T08:54:34.922Z,17.52
2019-04-16T08:57:03.348Z,17.40
2019-04-16T08:59:31.765Z,18.32
2019-04-16T09:02:00.209Z,18.80
2019-04-16T09:04:34.259Z,17.92
2019-04-16T09:07:10.572Z,21.07
2019-04-16T09:09:34.118Z,18.80
2019-04-16T09:12:07.977Z,18.70
2019-04-16T09:14:35.957Z,19.40
2019-04-16T09:17:09.519Z,17.85
2019-04-16T09:19:37.609Z,17.87
2019-04-16T09:22:06.232Z,13.65
2019-04-16T09:24:40.200Z,14.80
2019-04-16T09:27:13.413Z,14.03
2019-04-16T09:29:52.004Z,15.18
2019-04-16T09:32:40.058Z,15.58
2019-04-16T09:35:20.418Z,12.73
2019-04-16T09:37:56.532Z,13.83
2019-04-16T09:40:26.619Z,13.90
2019-04-16T09:42:55.804Z,13.13
2019-04-16T09:45:25.190Z,13.68
2019-04-16T09:47:54.004Z,12.85
2019-04-16T09:50:22.604Z,11.73
2019-04-16T09:52:52.385Z,12.80
2019-04-16T09:55:21.262Z,14.73
2019-04-16T09:57:49.668Z,15.45
2019-04-16T10:00:21.256Z,10.43
2019-04-16T10:02:49.840Z,12.15
2019-04-16T10:05:18.262Z,9.88
2019-04-16T10:07:46.749Z,10.98
2019-04-16T10:10:15.308Z,10.53
2019-04-16T10:12:43.819Z,10.70
2019-04-16T10:15:12.556Z,10.58
2019-04-16T10:17:41.097Z,10.82
2019-04-16T10:20:09.751Z,8.75
2019-04-16T10:22:38.238Z,11.15
2019-04-16T10:25:11.779Z,10.60
2019-04-16T10:27:41.995Z,10.85
2019-04-16T10:30:18.664Z,10.00
2019-04-16T10:32:47.349Z,9.43
2019-04-16T10:35:15.890Z,9.10
2019-04-16T10:37:44.320Z,7.47
2019-04-16T10:40:15.985Z,7.58
2019-04-16T10:43:02.632Z,8.45
2019-04-16T10:45:49.157Z,9.05
2019-04-16T10:48:22.384Z,8.33
2019-04-16T10:51:01.330Z,9.83
2019-04-16T10:53:47.681Z,9.00
2019-04-16T10:56:20.770Z,8.95
2019-04-16T10:58:55.182Z,8.20
2019-04-16T11:01:35.215Z,8.15
2019-04-16T11:04:14.279Z,9.70
2019-04-16T11:06:44.562Z,9.18
2019-04-16T11:09:12.993Z,9.60
2019-04-16T11:11:41.594Z,9.78
2019-04-16T11:14:10.460Z,9.53
2019-04-16T11:16:40.598Z,10.30
2019-04-16T11:19:09.374Z,10.95
2019-04-16T11:21:37.869Z,9.48
2019-04-16T11:24:06.355Z,10.43
2019-04-16T11:26:34.765Z,9.48
2019-04-16T11:29:03.213Z,11.63
2019-04-16T11:31:31.886Z,11.95
2019-04-16T11:34:00.403Z,11.78
2019-04-16T11:36:30.949Z,11.30
2019-04-16T11:38:59.030Z,11.50
2019-04-16T11:41:27.491Z,11.68
2019-04-16T11:43:55.957Z,12.10
2019-04-16T11:46:24.485Z,11.48
2019-04-16T11:48:52.971Z,12.15
2019-04-16T11:51:24.533Z,11.63
2019-04-16T11:53:53.148Z,13.03
2019-04-16T11:56:38.604Z,12.05
2019-04-16T11:58:53.015Z,12.50
2019-04-16T12:01:32.138Z,12.85
2019-04-16T12:04:05.062Z,12.25
2019-04-16T12:06:48.717Z,11.57
2019-04-16T12:09:24.641Z,10.72
2019-04-16T12:11:54.717Z,13.20
2019-04-16T12:14:32.455Z,12.75
2019-04-16T12:17:02.737Z,12.13
2019-04-16T12:19:32.841Z,13.30
2019-04-16T12:22:08.709Z,12.85
2019-04-16T12:24:53.513Z,12.33
2019-04-16T12:27:36.987Z,13.38
2019-04-16T12:30:25.572Z,13.40
2019-04-16T12:32:56.359Z,13.30
2019-04-16T12:35:45.338Z,12.15
2019-04-16T12:38:18.654Z,12.40
2019-04-16T12:41:03.565Z,12.47
2019-04-16T12:43:36.641Z,12.55
2019-04-16T12:46:13.307Z,12.13
2019-04-16T12:48:55.289Z,11.08
2019-04-16T12:51:43.988Z,11.93
2019-04-16T12:54:14.268Z,12.20
2019-04-16T12:57:00.286Z,13.05
2019-04-16T12:59:33.153Z,11.83
2019-04-16T13:02:15.229Z,11.43
2019-04-16T13:04:45.664Z,11.48
2019-04-16T13:07:17.097Z,11.73
2019-04-16T13:09:56.205Z,11.75
2019-04-16T13:12:44.504Z,11.48
2019-04-16T13:15:14.921Z,11.88
2019-04-16T13:18:01.692Z,10.80
2019-04-16T13:20:37.818Z,11.48
2019-04-16T13:23:19.477Z,12.68
2019-04-16T13:26:05.495Z,10.68
2019-04-16T13:28:33.910Z,12.45
2019-04-16T13:31:02.400Z,12.75
2019-04-16T13:33:30.828Z,12.03
2019-04-16T13:35:59.250Z,11.68
2019-04-16T13:38:37.575Z,12.37
2019-04-16T13:41:05.281Z,11.97
2019-04-16T13:43:39.180Z,10.20
2019-04-16T13:46:07.586Z,9.98
2019-04-16T13:48:42.401Z,10.95
2019-04-16T13:51:18.647Z,11.15
2019-04-16T13:53:46.638Z,11.15
2019-04-16T13:56:19.409Z,12.60
2019-04-16T13:58:56.120Z,12.68
2019-04-16T14:01:27.248Z,14.00
2019-04-16T14:03:56.362Z,12.40
2019-04-16T14:06:25.549Z,12.20
2019-04-16T14:08:54.661Z,13.13
2019-04-16T14:11:23.089Z,13.58
2019-04-16T14:13:51.524Z,11.25
2019-04-16T14:16:19.947Z,12.30
2019-04-16T14:18:48.389Z,12.75
2019-04-16T14:21:16.782Z,13.00
2019-04-16T14:23:45.225Z,13.15
2019-04-16T14:26:13.714Z,11.63
2019-04-16T14:28:51.905Z,10.93
2019-04-16T14:31:16.323Z,12.07
2019-04-16T14:33:52.911Z,11.97
2019-04-16T14:36:21.778Z,11.12
2019-04-16T14:38:54.851Z,13.00
2019-04-16T14:41:23.263Z,11.20
2019-04-16T14:43:58.818Z,11.45
2019-04-16T14:46:28.411Z,13.05
2019-04-16T14:48:56.367Z,12.37
2019-04-16T14:51:24.814Z,12.10
2019-04-16T14:53:54.910Z,12.30
2019-04-16T14:56:25.010Z,11.50
2019-04-16T14:58:55.069Z,11.85
2019-04-16T15:01:34.377Z,10.72
2019-04-16T15:04:19.658Z,11.35
2019-04-16T15:07:06.405Z,10.98
2019-04-16T15:09:36.474Z,10.78
2019-04-16T15:12:23.333Z,11.12
2019-04-16T15:14:59.439Z,10.65
2019-04-16T15:17:44.468Z,11.93
2019-04-16T15:20:23.796Z,12.15
2019-04-16T15:23:10.513Z,13.20
2019-04-16T15:25:56.985Z,12.60
2019-04-16T15:28:27.055Z,12.18
2019-04-16T15:31:00.711Z,11.93
2019-04-16T15:33:28.890Z,12.43
2019-04-16T15:36:01.688Z,11.95
2019-04-16T15:38:37.748Z,12.03
2019-04-16T15:41:17.525Z,11.48
2019-04-16T15:44:04.171Z,11.35
2019-04-16T15:46:41.224Z,11.08
2019-04-16T15:49:26.769Z,10.72
2019-04-16T15:52:13.376Z,10.43
2019-04-16T15:54:52.488Z,10.78
2019-04-16T15:57:38.773Z,10.15
2019-04-16T16:00:15.793Z,10.93
2019-04-16T16:03:02.353Z,10.25
2019-04-16T16:05:50.480Z,10.98
2019-04-16T16:08:27.013Z,10.68
2019-04-16T16:10:58.298Z,11.65
2019-04-16T16:13:27.249Z,11.40
2019-04-16T16:15:55.709Z,11.45
2019-04-16T16:18:24.371Z,10.68
2019-04-16T16:20:52.782Z,11.25
2019-04-16T16:23:21.196Z,11.57
2019-04-16T16:25:49.658Z,11.60
2019-04-16T16:28:18.129Z,11.15
2019-04-16T16:30:46.564Z,8.93
2019-04-16T16:33:14.973Z,9.13
2019-04-16T16:35:57.096Z,9.98
2019-04-16T16:38:14.077Z,10.68
2019-04-16T16:40:43.467Z,8.23
2019-04-16T16:43:14.170Z,7.85
2019-04-16T16:45:46.477Z,7.47
2019-04-16T16:48:15.070Z,8.43
2019-04-16T16:50:44.091Z,6.85
2019-04-16T16:53:30.721Z,8.00
2019-04-16T16:56:02.802Z,8.08
2019-04-16T16:58:32.634Z,8.50
2019-04-16T17:01:13.880Z,8.80
2019-04-16T17:03:43.281Z,8.28
2019-04-16T17:06:13.352Z,8.25
2019-04-16T17:08:41.765Z,7.05
2019-04-16T17:11:16.446Z,7.47
2019-04-16T17:13:40.429Z,6.12
2019-04-16T17:16:13.509Z,6.95
2019-04-16T17:18:39.021Z,7.28
2019-04-16T17:21:07.441Z,7.92
2019-04-16T17:23:37.952Z,8.30
2019-04-16T17:26:06.464Z,7.37
2019-04-16T17:28:34.885Z,6.60
2019-04-16T17:31:05.920Z,9.70
2019-04-16T17:33:34.417Z,10.48
2019-04-16T17:36:02.871Z,11.57
2019-04-16T17:38:33.866Z,9.93
2019-04-16T17:41:05.882Z,11.63
2019-04-16T17:44:00.352Z,11.50
2019-04-16T17:46:36.260Z,12.03
2019-04-16T17:49:12.158Z,12.53
2019-04-16T17:51:50.845Z,12.90
2019-04-16T17:54:23.619Z,12.23
2019-04-16T17:57:10.169Z,12.07
2019-04-16T17:59:56.750Z,9.55
2019-04-16T18:02:42.115Z,8.33
2019-04-16T18:05:23.419Z,7.33
2019-04-16T18:08:10.842Z,7.35
2019-04-16T18:10:43.617Z,7.92
2019-04-16T18:13:13.697Z,8.15
2019-04-16T18:15:53.004Z,6.17
2019-04-16T18:18:26.441Z,7.10
2019-04-16T18:20:58.927Z,6.67
2019-04-16T18:23:31.088Z,6.60
2019-04-16T18:26:17.144Z,6.47
2019-04-16T18:28:47.229Z,6.03
2019-04-16T18:31:36.478Z,6.25
2019-04-16T18:34:12.652Z,6.47
2019-04-16T18:36:42.700Z,6.75
2019-04-16T18:39:27.967Z,6.72
2019-04-16T18:41:58.097Z,6.85
2019-04-16T18:44:44.398Z,6.45
2019-04-16T18:47:24.006Z,8.05
2019-04-16T18:49:54.156Z,7.55
2019-04-16T18:52:23.198Z,6.95
2019-04-16T18:54:53.268Z,7.35
2019-04-16T18:57:22.853Z,6.78
2019-04-16T18:59:52.904Z,7.40
2019-04-16T19:02:25.468Z,10.70
2019-04-16T19:04:55.387Z,9.00
2019-04-16T19:07:25.357Z,6.58
2019-04-16T19:09:55.217Z,8.85
2019-04-16T19:12:25.272Z,7.35
2019-04-16T19:14:55.074Z,7.15
2019-04-16T19:17:25.035Z,6.80
2019-04-16T19:19:55.271Z,8.15
2019-04-16T19:22:25.157Z,7.78
2019-04-16T19:24:58.247Z,7.65
2019-04-16T19:27:28.047Z,7.17
2019-04-16T19:30:00.716Z,7.05
2019-04-16T19:32:30.747Z,7.40
2019-04-16T19:35:08.779Z,8.50
2019-04-16T19:37:34.067Z,7.78
2019-04-16T19:40:07.240Z,7.70
2019-04-16T19:42:38.564Z,7.50
2019-04-16T19:45:08.962Z,7.28
2019-04-16T19:47:40.022Z,8.20
2019-04-16T19:50:09.929Z,8.33
2019-04-16T19:52:39.928Z,6.65
2019-04-16T19:55:12.580Z,6.33
2019-04-16T19:57:42.216Z,7.60
2019-04-16T20:00:12.656Z,5.80
2019-04-16T20:02:42.862Z,7.05
2019-04-16T20:05:15.414Z,6.08
2019-04-16T20:07:44.907Z,6.85
2019-04-16T20:10:15.954Z,7.45
2019-04-16T20:12:45.809Z,6.50
2019-04-16T20:15:15.738Z,6.53
2019-04-16T20:17:46.005Z,7.45
2019-04-16T20:20:16.152Z,7.00
2019-04-16T20:22:46.107Z,7.30
2019-04-16T20:25:16.174Z,6.12
2019-04-16T20:27:46.315Z,7.00
2019-04-16T20:30:16.451Z,5.92
2019-04-16T20:32:46.663Z,6.87
2019-04-16T20:35:18.769Z,6.45
2019-04-16T20:37:50.408Z,6.25
2019-04-16T20:40:21.095Z,6.75
2019-04-16T20:42:53.931Z,6.75
2019-04-16T20:45:26.005Z,6.62
2019-04-16T20:47:56.066Z,8.60
2019-04-16T20:50:25.995Z,9.63
2019-04-16T20:52:57.092Z,6.75
2019-04-16T20:55:28.116Z,6.40
2019-04-16T20:58:00.443Z,7.20
2019-04-16T21:00:30.930Z,6.10
2019-04-16T21:03:02.265Z,6.55
2019-04-16T21:05:35.454Z,6.70
2019-04-16T21:08:01.193Z,7.22
2019-04-16T21:10:29.921Z,6.45
2019-04-16T21:12:59.926Z,7.22
2019-04-16T21:15:28.437Z,7.35
2019-04-16T21:17:59.608Z,7.08
2019-04-16T21:20:28.112Z,6.45
2019-04-16T21:22:57.425Z,7.60
2019-04-16T21:25:29.554Z,6.15
2019-04-16T21:28:08.566Z,7.60
2019-04-16T21:30:37.163Z,6.90
2019-04-16T21:33:13.512Z,8.38
2019-04-16T21:35:46.338Z,8.05
2019-04-16T21:38:19.104Z,7.70
2019-04-16T21:40:47.636Z,7.80
2019-04-16T21:43:16.150Z,8.38
2019-04-16T21:45:45.574Z,6.87
2019-04-16T21:48:14.171Z,7.70
2019-04-16T21:50:44.522Z,7.75
2019-04-16T21:53:12.821Z,7.70
2019-04-16T21:55:41.306Z,7.40
2019-04-16T21:58:09.789Z,6.80
2019-04-16T22:00:39.889Z,9.15
2019-04-16T22:03:10.984Z,8.10
2019-04-16T22:05:39.649Z,8.68
2019-04-16T22:08:08.065Z,7.67
2019-04-16T22:10:36.990Z,7.83
2019-04-16T22:13:05.641Z,9.40
2019-04-16T22:15:34.055Z,8.70
2019-04-16T22:18:07.581Z,8.08
2019-04-16T22:20:35.731Z,7.92
2019-04-16T22:23:02.773Z,7.87
2019-04-16T22:25:31.177Z,7.65
2019-04-16T22:27:59.592Z,8.50
2019-04-16T22:30:28.399Z,8.25
2019-04-16T22:33:16.173Z,7.92
2019-04-16T22:35:44.604Z,9.25
2019-04-16T22:38:14.401Z,9.95
2019-04-16T22:40:44.673Z,9.28
2019-04-16T22:43:14.742Z,9.68
2019-04-16T22:45:53.711Z,9.43
2019-04-16T22:48:22.120Z,9.08
2019-04-16T22:50:50.816Z,9.75
2019-04-16T22:53:19.233Z,8.90
2019-04-16T22:55:47.640Z,8.93
2019-04-16T22:58:26.778Z,10.88
2019-04-16T23:00:57.582Z,9.63
2019-04-16T23:03:26.275Z,8.78
2019-04-16T23:05:54.685Z,10.43
2019-04-16T23:08:23.112Z,10.85
2019-04-16T23:10:52.112Z,10.88
2019-04-16T23:13:20.626Z,10.25
2019-04-16T23:15:49.078Z,10.63
2019-04-16T23:18:18.340Z,11.38
2019-04-16T23:20:46.920Z,10.13
2019-04-16T23:23:18.127Z,10.18
2019-04-16T23:25:45.486Z,10.10
2019-04-16T23:28:13.921Z,10.80
2019-04-16T23:30:42.333Z,10.40
2019-04-16T23:33:10.783Z,9.75
2019-04-16T23:35:43.165Z,10.85
2019-04-16T23:38:09.345Z,9.18
2019-04-16T23:40:40.731Z,8.68
2019-04-16T23:43:27.781Z,9.43
2019-04-16T23:46:04.998Z,10.20
2019-04-16T23:48:50.565Z,10.68
2019-04-16T23:51:29.025Z,10.43
2019-04-16T23:53:58.269Z,9.38
2019-04-16T23:56:28.733Z,10.63
2019-04-16T23:59:15.255Z,10.18
